Oakland, CA (94601)

3:56 AM PDT on August 24, 2016 (GMT -0700)
ALLENDALE | | Change Station

Elev 141 ft 37.79 °N, 122.20 °W | Updated 12 minutes ago

Overcast
Overcast
58.3 °F
Feels Like 58.3 °F
N
1.7
Wind Variable Wind from ESE

Today
High -- | Low -- °F
--% Chance of Precip.
Yesterday
High -- | Low -- °F
Precip. -- in
Pressure 30.08 in
Visibility 10.0 miles
Clouds Overcast 900 ft
Dew Point 53 °F
Humidity 82%
Rainfall 0.00 in
Snow Depth Not available.
6:32 AM 7:48 PM
Waning Gibbous, 58% visible
METAR KOAK 241053Z 29006KT 10SM OVC009 16/13 A3008 RMK AO2 SLP185 T01560133
Pressure 30.08 in
Visibility 10.0 miles
Clouds Overcast 900 ft
Dew Point 53 °F
Humidity 82%
Rainfall 0.00 in
Snow Depth Not available.
6:32 AM 7:48 PM
Waning Gibbous, 58% visible
METAR KOAK 241053Z 29006KT 10SM OVC009 16/13 A3008 RMK AO2 SLP185 T01560133

10-Day Weather Forecast

Almanac

Astronomy

Aug. 24, 2016 Rise Set
Actual Time
Civil Twilight
Nautical Twilight
Astronomical Twilight
Moon
Length of Visible Light
Length of Day
Tomorrow will be .
, % of the Moon is Illuminated

Today's Extremes

State Highs State Lows

Community

WunderPhotos

Upload Photos

1,934,562 photos uploaded!

WunderBlog® & News

Nearby

Air Quality

  Air Quality AQ Index Pollutant
Not available.

Snow Depth

Station Depth Elevation

Earthquake Activity

City Distance Mag. Time & Date
Minimum magnitude displayed is 2.5.

Coastal Water Temperatures

Place Temperature

Stations

Nearby Weather Stations

Station Location Temp. Windchill Dew Point Humidity Wind Precip. Elev Updated Type
                   

Watches & Warnings

There are currently no watches in effect.